sensor_id;sensor_type;location;lat;lon;timestamp;P1;durP1;ratioP1;P2;durP2;ratioP2
33738;SDS011;20063;51.730;11.110;2024-02-16T00:00:55;3.97;;;2.05;;
33738;SDS011;20063;51.730;11.110;2024-02-16T00:03:22;5.18;;;2.00;;
33738;SDS011;20063;51.730;11.110;2024-02-16T00:05:47;6.35;;;1.70;;
33738;SDS011;20063;51.730;11.110;2024-02-16T00:08:15;4.57;;;1.70;;
33738;SDS011;20063;51.730;11.110;2024-02-16T00:10:41;4.78;;;1.95;;
33738;SDS011;20063;51.730;11.110;2024-02-16T00:13:07;8.90;;;2.03;;
33738;SDS011;20063;51.730;11.110;2024-02-16T00:15:33;5.53;;;1.58;;
33738;SDS011;20063;51.730;11.110;2024-02-16T00:17:59;4.65;;;1.70;;
33738;SDS011;20063;51.730;11.110;2024-02-16T00:20:25;6.05;;;2.00;;
33738;SDS011;20063;51.730;11.110;2024-02-16T00:22:50;5.43;;;1.77;;
33738;SDS011;20063;51.730;11.110;2024-02-16T00:25:16;8.02;;;1.92;;
33738;SDS011;20063;51.730;11.110;2024-02-16T00:27:43;7.53;;;1.85;;
33738;SDS011;20063;51.730;11.110;2024-02-16T00:30:09;5.55;;;1.70;;
33738;SDS011;20063;51.730;11.110;2024-02-16T00:32:35;4.07;;;1.77;;
33738;SDS011;20063;51.730;11.110;2024-02-16T00:35:02;2.78;;;1.60;;
33738;SDS011;20063;51.730;11.110;2024-02-16T00:37:28;8.38;;;2.33;;
33738;SDS011;20063;51.730;11.110;2024-02-16T00:39:53;5.55;;;1.90;;
33738;SDS011;20063;51.730;11.110;2024-02-16T00:42:20;7.72;;;1.67;;
33738;SDS011;20063;51.730;11.110;2024-02-16T00:44:49;2.30;;;1.40;;
33738;SDS011;20063;51.730;11.110;2024-02-16T00:47:15;6.95;;;1.90;;
33738;SDS011;20063;51.730;11.110;2024-02-16T00:49:41;4.75;;;1.67;;
33738;SDS011;20063;51.730;11.110;2024-02-16T00:52:10;5.05;;;1.75;;
33738;SDS011;20063;51.730;11.110;2024-02-16T00:54:36;3.13;;;1.27;;
33738;SDS011;20063;51.730;11.110;2024-02-16T00:57:02;8.45;;;1.75;;
33738;SDS011;20063;51.730;11.110;2024-02-16T00:59:31;2.63;;;1.88;;
33738;SDS011;20063;51.730;11.110;2024-02-16T01:01:57;7.18;;;1.52;;
33738;SDS011;20063;51.730;11.110;2024-02-16T01:04:25;3.00;;;1.70;;
33738;SDS011;20063;51.730;11.110;2024-02-16T01:06:51;6.13;;;2.20;;
33738;SDS011;20063;51.730;11.110;2024-02-16T01:09:16;6.30;;;1.60;;
33738;SDS011;20063;51.730;11.110;2024-02-16T01:11:42;3.55;;;1.63;;
33738;SDS011;20063;51.730;11.110;2024-02-16T01:14:08;8.70;;;1.90;;
33738;SDS011;20063;51.730;11.110;2024-02-16T01:16:33;3.70;;;1.83;;
33738;SDS011;20063;51.730;11.110;2024-02-16T01:19:00;5.15;;;1.60;;
33738;SDS011;20063;51.730;11.110;2024-02-16T01:21:26;4.70;;;1.45;;
33738;SDS011;20063;51.730;11.110;2024-02-16T01:23:52;7.00;;;1.58;;
33738;SDS011;20063;51.730;11.110;2024-02-16T01:26:18;7.80;;;1.85;;
33738;SDS011;20063;51.730;11.110;2024-02-16T01:28:43;8.85;;;2.03;;
33738;SDS011;20063;51.730;11.110;2024-02-16T01:31:09;9.73;;;1.80;;
33738;SDS011;20063;51.730;11.110;2024-02-16T01:33:35;7.63;;;1.88;;
33738;SDS011;20063;51.730;11.110;2024-02-16T01:36:02;3.20;;;1.40;;
33738;SDS011;20063;51.730;11.110;2024-02-16T01:38:28;5.38;;;2.17;;
33738;SDS011;20063;51.730;11.110;2024-02-16T01:40:54;7.15;;;1.95;;
33738;SDS011;20063;51.730;11.110;2024-02-16T01:43:20;3.45;;;1.73;;
33738;SDS011;20063;51.730;11.110;2024-02-16T01:45:47;3.88;;;1.70;;
33738;SDS011;20063;51.730;11.110;2024-02-16T01:48:13;2.45;;;1.50;;
33738;SDS011;20063;51.730;11.110;2024-02-16T01:50:40;8.68;;;1.80;;
33738;SDS011;20063;51.730;11.110;2024-02-16T01:53:08;3.63;;;2.08;;
33738;SDS011;20063;51.730;11.110;2024-02-16T01:55:34;9.48;;;2.70;;
33738;SDS011;20063;51.730;11.110;2024-02-16T01:58:00;4.15;;;1.45;;
33738;SDS011;20063;51.730;11.110;2024-02-16T02:00:26;5.82;;;1.80;;
33738;SDS011;20063;51.730;11.110;2024-02-16T02:02:51;5.65;;;1.73;;
33738;SDS011;20063;51.730;11.110;2024-02-16T02:05:17;5.28;;;1.65;;
33738;SDS011;20063;51.730;11.110;2024-02-16T02:07:43;3.67;;;1.40;;
33738;SDS011;20063;51.730;11.110;2024-02-16T02:10:09;3.40;;;1.55;;
33738;SDS011;20063;51.730;11.110;2024-02-16T02:12:38;4.38;;;1.48;;
33738;SDS011;20063;51.730;11.110;2024-02-16T02:15:04;3.67;;;1.48;;
33738;SDS011;20063;51.730;11.110;2024-02-16T02:17:30;6.47;;;1.67;;
33738;SDS011;20063;51.730;11.110;2024-02-16T02:19:56;2.80;;;1.50;;
33738;SDS011;20063;51.730;11.110;2024-02-16T02:22:21;3.78;;;1.67;;
33738;SDS011;20063;51.730;11.110;2024-02-16T02:24:48;4.68;;;1.95;;
33738;SDS011;20063;51.730;11.110;2024-02-16T02:27:14;4.65;;;2.00;;
33738;SDS011;20063;51.730;11.110;2024-02-16T02:29:40;3.65;;;1.60;;
33738;SDS011;20063;51.730;11.110;2024-02-16T02:32:07;6.93;;;1.60;;
33738;SDS011;20063;51.730;11.110;2024-02-16T02:34:33;9.95;;;2.10;;
33738;SDS011;20063;51.730;11.110;2024-02-16T02:36:58;8.63;;;2.50;;
33738;SDS011;20063;51.730;11.110;2024-02-16T02:39:24;6.50;;;1.83;;
33738;SDS011;20063;51.730;11.110;2024-02-16T02:41:50;2.58;;;1.55;;
33738;SDS011;20063;51.730;11.110;2024-02-16T02:44:16;5.30;;;1.73;;
33738;SDS011;20063;51.730;11.110;2024-02-16T02:46:44;5.05;;;1.92;;
33738;SDS011;20063;51.730;11.110;2024-02-16T02:49:10;8.32;;;2.03;;
33738;SDS011;20063;51.730;11.110;2024-02-16T02:51:35;6.10;;;2.00;;
33738;SDS011;20063;51.730;11.110;2024-02-16T02:54:01;6.82;;;1.75;;
33738;SDS011;20063;51.730;11.110;2024-02-16T02:56:26;3.85;;;1.65;;
33738;SDS011;20063;51.730;11.110;2024-02-16T02:58:52;5.50;;;2.00;;
33738;SDS011;20063;51.730;11.110;2024-02-16T03:01:18;11.75;;;2.42;;
33738;SDS011;20063;51.730;11.110;2024-02-16T03:03:47;6.80;;;1.77;;
33738;SDS011;20063;51.730;11.110;2024-02-16T03:06:18;3.97;;;2.25;;
33738;SDS011;20063;51.730;11.110;2024-02-16T03:08:44;4.55;;;1.92;;
33738;SDS011;20063;51.730;11.110;2024-02-16T03:11:10;8.38;;;1.85;;
33738;SDS011;20063;51.730;11.110;2024-02-16T03:13:35;7.93;;;1.80;;
33738;SDS011;20063;51.730;11.110;2024-02-16T03:16:01;4.97;;;1.50;;
33738;SDS011;20063;51.730;11.110;2024-02-16T03:18:30;6.55;;;2.00;;
33738;SDS011;20063;51.730;11.110;2024-02-16T03:20:56;4.18;;;1.63;;
33738;SDS011;20063;51.730;11.110;2024-02-16T03:23:22;10.38;;;2.33;;
33738;SDS011;20063;51.730;11.110;2024-02-16T03:25:48;6.95;;;2.00;;
33738;SDS011;20063;51.730;11.110;2024-02-16T03:28:14;4.47;;;1.42;;
33738;SDS011;20063;51.730;11.110;2024-02-16T03:30:40;4.65;;;2.00;;
33738;SDS011;20063;51.730;11.110;2024-02-16T03:33:06;7.15;;;1.90;;
33738;SDS011;20063;51.730;11.110;2024-02-16T03:35:34;4.90;;;1.50;;
33738;SDS011;20063;51.730;11.110;2024-02-16T03:38:00;6.57;;;2.13;;
33738;SDS011;20063;51.730;11.110;2024-02-16T03:40:25;4.85;;;2.10;;
33738;SDS011;20063;51.730;11.110;2024-02-16T03:42:51;10.52;;;2.08;;
33738;SDS011;20063;51.730;11.110;2024-02-16T03:45:17;5.13;;;1.80;;
33738;SDS011;20063;51.730;11.110;2024-02-16T03:47:43;7.88;;;1.98;;
33738;SDS011;20063;51.730;11.110;2024-02-16T03:50:11;7.88;;;2.17;;
33738;SDS011;20063;51.730;11.110;2024-02-16T03:52:39;4.55;;;2.05;;
33738;SDS011;20063;51.730;11.110;2024-02-16T03:55:05;5.70;;;1.77;;
33738;SDS011;20063;51.730;11.110;2024-02-16T03:57:31;9.07;;;2.50;;
33738;SDS011;20063;51.730;11.110;2024-02-16T03:59:56;5.45;;;2.53;;
33738;SDS011;20063;51.730;11.110;2024-02-16T04:02:22;5.63;;;2.40;;
33738;SDS011;20063;51.730;11.110;2024-02-16T04:04:48;3.65;;;2.00;;
33738;SDS011;20063;51.730;11.110;2024-02-16T04:07:16;7.15;;;2.42;;
33738;SDS011;20063;51.730;11.110;2024-02-16T04:09:42;10.48;;;2.38;;
33738;SDS011;20063;51.730;11.110;2024-02-16T04:12:11;14.18;;;2.92;;
33738;SDS011;20063;51.730;11.110;2024-02-16T04:14:36;7.43;;;2.15;;
33738;SDS011;20063;51.730;11.110;2024-02-16T04:17:02;5.38;;;2.58;;
33738;SDS011;20063;51.730;11.110;2024-02-16T04:19:31;5.18;;;2.78;;
33738;SDS011;20063;51.730;11.110;2024-02-16T04:21:56;10.50;;;2.53;;
33738;SDS011;20063;51.730;11.110;2024-02-16T04:24:22;8.75;;;2.60;;
33738;SDS011;20063;51.730;11.110;2024-02-16T04:26:48;10.05;;;2.08;;
33738;SDS011;20063;51.730;11.110;2024-02-16T04:29:14;6.93;;;2.35;;
33738;SDS011;20063;51.730;11.110;2024-02-16T04:31:41;11.45;;;2.05;;
33738;SDS011;20063;51.730;11.110;2024-02-16T04:34:07;4.20;;;2.13;;
33738;SDS011;20063;51.730;11.110;2024-02-16T04:36:34;3.05;;;1.55;;
33738;SDS011;20063;51.730;11.110;2024-02-16T04:39:00;4.40;;;1.80;;
33738;SDS011;20063;51.730;11.110;2024-02-16T04:41:26;8.85;;;2.35;;
33738;SDS011;20063;51.730;11.110;2024-02-16T04:43:51;5.30;;;2.20;;
33738;SDS011;20063;51.730;11.110;2024-02-16T04:46:18;4.25;;;1.80;;
33738;SDS011;20063;51.730;11.110;2024-02-16T04:48:43;3.30;;;1.80;;
33738;SDS011;20063;51.730;11.110;2024-02-16T04:51:10;2.88;;;1.83;;
33738;SDS011;20063;51.730;11.110;2024-02-16T04:53:36;2.33;;;1.60;;
33738;SDS011;20063;51.730;11.110;2024-02-16T04:56:01;5.50;;;1.90;;
33738;SDS011;20063;51.730;11.110;2024-02-16T04:58:30;4.38;;;1.80;;
33738;SDS011;20063;51.730;11.110;2024-02-16T05:00:57;6.03;;;2.10;;
33738;SDS011;20063;51.730;11.110;2024-02-16T05:03:22;3.80;;;2.08;;
33738;SDS011;20063;51.730;11.110;2024-02-16T05:05:49;10.35;;;2.47;;
33738;SDS011;20063;51.730;11.110;2024-02-16T05:08:14;7.57;;;1.98;;
33738;SDS011;20063;51.730;11.110;2024-02-16T05:10:40;6.47;;;2.15;;
33738;SDS011;20063;51.730;11.110;2024-02-16T05:13:06;5.90;;;2.47;;
33738;SDS011;20063;51.730;11.110;2024-02-16T05:15:31;3.00;;;1.95;;
33738;SDS011;20063;51.730;11.110;2024-02-16T05:18:00;9.55;;;2.63;;
33738;SDS011;20063;51.730;11.110;2024-02-16T05:20:26;10.13;;;2.50;;
33738;SDS011;20063;51.730;11.110;2024-02-16T05:22:52;5.90;;;2.45;;
33738;SDS011;20063;51.730;11.110;2024-02-16T05:25:22;7.20;;;2.42;;
33738;SDS011;20063;51.730;11.110;2024-02-16T05:27:47;3.95;;;2.20;;
33738;SDS011;20063;51.730;11.110;2024-02-16T05:30:13;7.13;;;2.33;;
33738;SDS011;20063;51.730;11.110;2024-02-16T05:32:40;8.93;;;2.80;;
33738;SDS011;20063;51.730;11.110;2024-02-16T05:35:07;8.43;;;2.60;;
33738;SDS011;20063;51.730;11.110;2024-02-16T05:37:39;11.27;;;2.60;;
33738;SDS011;20063;51.730;11.110;2024-02-16T05:40:09;6.00;;;2.45;;
33738;SDS011;20063;51.730;11.110;2024-02-16T05:42:47;11.05;;;2.65;;
33738;SDS011;20063;51.730;11.110;2024-02-16T05:45:14;6.90;;;2.53;;
33738;SDS011;20063;51.730;11.110;2024-02-16T05:47:40;4.50;;;2.65;;
33738;SDS011;20063;51.730;11.110;2024-02-16T05:50:11;4.88;;;2.40;;
33738;SDS011;20063;51.730;11.110;2024-02-16T05:52:39;8.52;;;2.60;;
33738;SDS011;20063;51.730;11.110;2024-02-16T05:55:05;7.68;;;2.83;;
33738;SDS011;20063;51.730;11.110;2024-02-16T05:57:32;7.78;;;3.35;;
33738;SDS011;20063;51.730;11.110;2024-02-16T05:59:57;8.77;;;3.22;;
33738;SDS011;20063;51.730;11.110;2024-02-16T06:02:23;6.15;;;3.03;;
33738;SDS011;20063;51.730;11.110;2024-02-16T06:04:52;7.65;;;3.70;;
33738;SDS011;20063;51.730;11.110;2024-02-16T06:07:18;9.55;;;3.20;;
33738;SDS011;20063;51.730;11.110;2024-02-16T06:09:44;8.73;;;3.38;;
33738;SDS011;20063;51.730;11.110;2024-02-16T06:12:09;12.82;;;4.97;;
33738;SDS011;20063;51.730;11.110;2024-02-16T06:14:36;8.38;;;3.33;;
33738;SDS011;20063;51.730;11.110;2024-02-16T06:17:02;6.07;;;2.67;;
33738;SDS011;20063;51.730;11.110;2024-02-16T06:22:25;10.93;;;3.42;;
33738;SDS011;20063;51.730;11.110;2024-02-16T06:24:51;4.40;;;2.42;;
33738;SDS011;20063;51.730;11.110;2024-02-16T06:27:16;7.32;;;2.78;;
33738;SDS011;20063;51.730;11.110;2024-02-16T06:29:42;5.50;;;2.30;;
33738;SDS011;20063;51.730;11.110;2024-02-16T06:32:08;4.82;;;2.60;;
33738;SDS011;20063;51.730;11.110;2024-02-16T06:34:38;5.75;;;2.88;;
33738;SDS011;20063;51.730;11.110;2024-02-16T06:37:10;6.15;;;2.72;;
33738;SDS011;20063;51.730;11.110;2024-02-16T06:39:38;7.15;;;2.85;;
33738;SDS011;20063;51.730;11.110;2024-02-16T06:42:06;4.22;;;2.08;;
33738;SDS011;20063;51.730;11.110;2024-02-16T06:44:31;4.10;;;2.58;;
33738;SDS011;20063;51.730;11.110;2024-02-16T06:46:59;4.65;;;2.50;;
33738;SDS011;20063;51.730;11.110;2024-02-16T06:49:28;3.95;;;1.98;;
33738;SDS011;20063;51.730;11.110;2024-02-16T06:51:54;6.82;;;2.67;;
33738;SDS011;20063;51.730;11.110;2024-02-16T06:54:20;5.07;;;2.45;;
33738;SDS011;20063;51.730;11.110;2024-02-16T06:56:46;6.13;;;2.50;;
33738;SDS011;20063;51.730;11.110;2024-02-16T06:59:11;7.80;;;2.08;;
33738;SDS011;20063;51.730;11.110;2024-02-16T07:01:37;13.25;;;3.45;;
33738;SDS011;20063;51.730;11.110;2024-02-16T07:04:02;7.00;;;2.17;;
33738;SDS011;20063;51.730;11.110;2024-02-16T07:06:28;7.88;;;3.53;;
33738;SDS011;20063;51.730;11.110;2024-02-16T07:12:16;11.57;;;2.95;;
33738;SDS011;20063;51.730;11.110;2024-02-16T07:14:41;7.10;;;3.00;;
33738;SDS011;20063;51.730;11.110;2024-02-16T07:17:08;5.68;;;2.72;;
33738;SDS011;20063;51.730;11.110;2024-02-16T07:19:34;6.82;;;2.90;;
33738;SDS011;20063;51.730;11.110;2024-02-16T07:22:01;7.78;;;2.65;;
33738;SDS011;20063;51.730;11.110;2024-02-16T07:24:26;5.47;;;2.60;;
33738;SDS011;20063;51.730;11.110;2024-02-16T07:26:52;6.25;;;2.65;;
33738;SDS011;20063;51.730;11.110;2024-02-16T07:29:18;6.32;;;2.85;;
33738;SDS011;20063;51.730;11.110;2024-02-16T07:31:44;5.43;;;2.85;;
33738;SDS011;20063;51.730;11.110;2024-02-16T07:34:10;6.18;;;2.70;;
33738;SDS011;20063;51.730;11.110;2024-02-16T07:36:36;11.35;;;2.72;;
33738;SDS011;20063;51.730;11.110;2024-02-16T07:39:02;6.43;;;2.97;;
33738;SDS011;20063;51.730;11.110;2024-02-16T07:41:29;7.20;;;3.03;;
33738;SDS011;20063;51.730;11.110;2024-02-16T07:43:55;6.03;;;3.25;;
33738;SDS011;20063;51.730;11.110;2024-02-16T07:46:21;6.30;;;3.10;;
33738;SDS011;20063;51.730;11.110;2024-02-16T07:48:48;6.68;;;2.30;;
33738;SDS011;20063;51.730;11.110;2024-02-16T07:51:14;4.32;;;2.47;;
33738;SDS011;20063;51.730;11.110;2024-02-16T07:53:40;7.72;;;2.92;;
33738;SDS011;20063;51.730;11.110;2024-02-16T07:56:07;6.25;;;2.40;;
33738;SDS011;20063;51.730;11.110;2024-02-16T07:58:32;7.93;;;2.55;;
33738;SDS011;20063;51.730;11.110;2024-02-16T08:00:58;5.20;;;2.70;;
33738;SDS011;20063;51.730;11.110;2024-02-16T08:03:23;4.20;;;2.45;;
33738;SDS011;20063;51.730;11.110;2024-02-16T08:05:49;7.65;;;2.90;;
33738;SDS011;20063;51.730;11.110;2024-02-16T08:08:15;4.03;;;2.15;;
33738;SDS011;20063;51.730;11.110;2024-02-16T08:10:46;3.70;;;2.15;;
33738;SDS011;20063;51.730;11.110;2024-02-16T08:13:12;6.82;;;2.97;;
33738;SDS011;20063;51.730;11.110;2024-02-16T08:15:41;2.88;;;1.88;;
33738;SDS011;20063;51.730;11.110;2024-02-16T08:18:06;6.35;;;2.70;;
33738;SDS011;20063;51.730;11.110;2024-02-16T08:20:36;9.20;;;2.40;;
33738;SDS011;20063;51.730;11.110;2024-02-16T08:23:02;3.17;;;2.30;;
33738;SDS011;20063;51.730;11.110;2024-02-16T08:25:28;5.05;;;2.42;;
33738;SDS011;20063;51.730;11.110;2024-02-16T08:27:55;4.13;;;2.05;;
33738;SDS011;20063;51.730;11.110;2024-02-16T08:30:21;6.38;;;2.50;;
33738;SDS011;20063;51.730;11.110;2024-02-16T08:32:50;2.72;;;1.98;;
33738;SDS011;20063;51.730;11.110;2024-02-16T08:35:16;5.53;;;2.65;;
33738;SDS011;20063;51.730;11.110;2024-02-16T08:37:42;5.40;;;3.33;;
33738;SDS011;20063;51.730;11.110;2024-02-16T08:40:08;9.27;;;3.10;;
33738;SDS011;20063;51.730;11.110;2024-02-16T08:42:39;6.53;;;2.80;;
33738;SDS011;20063;51.730;11.110;2024-02-16T08:45:08;9.02;;;3.30;;
33738;SDS011;20063;51.730;11.110;2024-02-16T08:47:34;9.38;;;3.22;;
33738;SDS011;20063;51.730;11.110;2024-02-16T08:49:59;7.85;;;3.20;;
33738;SDS011;20063;51.730;11.110;2024-02-16T08:52:27;3.80;;;2.65;;
33738;SDS011;20063;51.730;11.110;2024-02-16T08:54:53;3.50;;;2.50;;
33738;SDS011;20063;51.730;11.110;2024-02-16T08:57:18;4.68;;;2.72;;
33738;SDS011;20063;51.730;11.110;2024-02-16T08:59:45;5.65;;;2.63;;
33738;SDS011;20063;51.730;11.110;2024-02-16T09:02:11;7.43;;;2.97;;
33738;SDS011;20063;51.730;11.110;2024-02-16T09:04:36;4.53;;;2.28;;
33738;SDS011;20063;51.730;11.110;2024-02-16T09:07:02;12.82;;;2.90;;
33738;SDS011;20063;51.730;11.110;2024-02-16T09:09:29;8.18;;;2.70;;
33738;SDS011;20063;51.730;11.110;2024-02-16T09:11:55;7.43;;;2.67;;
33738;SDS011;20063;51.730;11.110;2024-02-16T09:14:20;7.80;;;2.72;;
33738;SDS011;20063;51.730;11.110;2024-02-16T09:16:48;7.38;;;2.75;;
33738;SDS011;20063;51.730;11.110;2024-02-16T09:19:17;5.07;;;2.20;;
33738;SDS011;20063;51.730;11.110;2024-02-16T09:21:45;7.50;;;4.53;;
33738;SDS011;20063;51.730;11.110;2024-02-16T09:24:11;5.65;;;2.65;;
33738;SDS011;20063;51.730;11.110;2024-02-16T09:26:42;5.95;;;2.38;;
33738;SDS011;20063;51.730;11.110;2024-02-16T09:29:10;4.20;;;2.33;;
33738;SDS011;20063;51.730;11.110;2024-02-16T09:31:37;10.07;;;3.05;;
33738;SDS011;20063;51.730;11.110;2024-02-16T09:34:07;8.20;;;2.75;;
33738;SDS011;20063;51.730;11.110;2024-02-16T09:36:36;8.18;;;2.83;;
33738;SDS011;20063;51.730;11.110;2024-02-16T09:39:02;4.38;;;2.35;;
33738;SDS011;20063;51.730;11.110;2024-02-16T09:41:29;6.63;;;2.67;;
33738;SDS011;20063;51.730;11.110;2024-02-16T09:43:56;4.97;;;2.30;;
33738;SDS011;20063;51.730;11.110;2024-02-16T09:46:22;8.75;;;2.40;;
33738;SDS011;20063;51.730;11.110;2024-02-16T09:48:48;4.95;;;2.53;;
33738;SDS011;20063;51.730;11.110;2024-02-16T09:51:17;6.65;;;2.30;;
33738;SDS011;20063;51.730;11.110;2024-02-16T09:53:50;6.45;;;2.10;;
33738;SDS011;20063;51.730;11.110;2024-02-16T09:56:20;5.75;;;2.63;;
33738;SDS011;20063;51.730;11.110;2024-02-16T09:58:47;4.28;;;2.10;;
33738;SDS011;20063;51.730;11.110;2024-02-16T10:01:19;7.97;;;2.95;;
33738;SDS011;20063;51.730;11.110;2024-02-16T10:08:51;7.70;;;3.50;;
33738;SDS011;20063;51.730;11.110;2024-02-16T10:11:19;8.52;;;2.67;;
33738;SDS011;20063;51.730;11.110;2024-02-16T10:13:58;8.10;;;3.22;;
33738;SDS011;20063;51.730;11.110;2024-02-16T10:16:29;14.15;;;2.58;;
33738;SDS011;20063;51.730;11.110;2024-02-16T10:18:56;10.93;;;2.90;;
33738;SDS011;20063;51.730;11.110;2024-02-16T10:21:29;5.75;;;2.15;;
33738;SDS011;20063;51.730;11.110;2024-02-16T10:23:56;6.95;;;2.22;;
33738;SDS011;20063;51.730;11.110;2024-02-16T10:26:22;8.07;;;2.83;;
33738;SDS011;20063;51.730;11.110;2024-02-16T10:28:50;5.38;;;2.50;;
33738;SDS011;20063;51.730;11.110;2024-02-16T10:31:19;4.03;;;2.17;;
33738;SDS011;20063;51.730;11.110;2024-02-16T10:33:56;4.68;;;2.53;;
33738;SDS011;20063;51.730;11.110;2024-02-16T10:36:32;5.15;;;2.40;;
33738;SDS011;20063;51.730;11.110;2024-02-16T10:38:59;4.63;;;2.25;;
33738;SDS011;20063;51.730;11.110;2024-02-16T10:41:27;6.45;;;2.38;;
33738;SDS011;20063;51.730;11.110;2024-02-16T10:43:59;5.93;;;2.70;;
33738;SDS011;20063;51.730;11.110;2024-02-16T10:46:26;8.77;;;2.67;;
33738;SDS011;20063;51.730;11.110;2024-02-16T10:48:52;7.15;;;2.90;;
33738;SDS011;20063;51.730;11.110;2024-02-16T10:51:40;5.15;;;2.25;;
33738;SDS011;20063;51.730;11.110;2024-02-16T10:54:05;5.22;;;2.25;;
33738;SDS011;20063;51.730;11.110;2024-02-16T10:56:36;3.45;;;1.90;;
33738;SDS011;20063;51.730;11.110;2024-02-16T10:59:05;8.43;;;2.22;;
33738;SDS011;20063;51.730;11.110;2024-02-16T11:04:04;4.28;;;1.98;;
33738;SDS011;20063;51.730;11.110;2024-02-16T11:06:43;5.57;;;2.92;;
33738;SDS011;20063;51.730;11.110;2024-02-16T11:09:23;10.30;;;2.88;;
33738;SDS011;20063;51.730;11.110;2024-02-16T11:11:53;10.93;;;2.70;;
33738;SDS011;20063;51.730;11.110;2024-02-16T11:14:21;7.50;;;2.40;;
33738;SDS011;20063;51.730;11.110;2024-02-16T11:16:49;5.43;;;2.50;;
33738;SDS011;20063;51.730;11.110;2024-02-16T11:19:18;6.75;;;2.80;;
33738;SDS011;20063;51.730;11.110;2024-02-16T11:21:58;11.43;;;2.97;;
33738;SDS011;20063;51.730;11.110;2024-02-16T11:24:31;5.15;;;2.33;;
33738;SDS011;20063;51.730;11.110;2024-02-16T11:26:57;4.03;;;2.00;;
33738;SDS011;20063;51.730;11.110;2024-02-16T11:29:23;5.00;;;2.75;;
33738;SDS011;20063;51.730;11.110;2024-02-16T11:31:50;4.72;;;2.20;;
33738;SDS011;20063;51.730;11.110;2024-02-16T11:34:22;5.25;;;2.47;;
33738;SDS011;20063;51.730;11.110;2024-02-16T11:36:48;4.97;;;2.80;;
33738;SDS011;20063;51.730;11.110;2024-02-16T11:39:17;5.05;;;2.45;;
33738;SDS011;20063;51.730;11.110;2024-02-16T11:41:44;7.18;;;2.25;;
33738;SDS011;20063;51.730;11.110;2024-02-16T11:44:09;5.60;;;2.83;;
33738;SDS011;20063;51.730;11.110;2024-02-16T11:46:35;5.50;;;2.42;;
33738;SDS011;20063;51.730;11.110;2024-02-16T11:49:07;6.07;;;2.35;;
33738;SDS011;20063;51.730;11.110;2024-02-16T11:51:37;4.28;;;2.47;;
33738;SDS011;20063;51.730;11.110;2024-02-16T11:54:04;6.45;;;2.50;;
33738;SDS011;20063;51.730;11.110;2024-02-16T11:56:30;7.45;;;2.58;;
33738;SDS011;20063;51.730;11.110;2024-02-16T11:58:56;5.75;;;2.55;;
33738;SDS011;20063;51.730;11.110;2024-02-16T12:01:22;5.43;;;2.10;;
33738;SDS011;20063;51.730;11.110;2024-02-16T12:03:49;5.65;;;2.72;;
33738;SDS011;20063;51.730;11.110;2024-02-16T12:06:20;3.92;;;2.30;;
33738;SDS011;20063;51.730;11.110;2024-02-16T12:08:46;8.25;;;3.08;;
33738;SDS011;20063;51.730;11.110;2024-02-16T12:11:12;7.10;;;2.35;;
33738;SDS011;20063;51.730;11.110;2024-02-16T12:13:39;3.67;;;2.63;;
33738;SDS011;20063;51.730;11.110;2024-02-16T12:16:05;4.47;;;1.95;;
33738;SDS011;20063;51.730;11.110;2024-02-16T12:18:31;5.75;;;2.35;;
33738;SDS011;20063;51.730;11.110;2024-02-16T12:21:01;4.75;;;2.40;;
33738;SDS011;20063;51.730;11.110;2024-02-16T12:23:31;4.95;;;2.30;;
33738;SDS011;20063;51.730;11.110;2024-02-16T12:25:57;10.63;;;2.50;;
33738;SDS011;20063;51.730;11.110;2024-02-16T12:28:26;5.43;;;2.67;;
33738;SDS011;20063;51.730;11.110;2024-02-16T12:30:59;5.00;;;2.33;;
33738;SDS011;20063;51.730;11.110;2024-02-16T12:33:25;7.22;;;2.10;;
33738;SDS011;20063;51.730;11.110;2024-02-16T12:35:51;7.22;;;2.42;;
33738;SDS011;20063;51.730;11.110;2024-02-16T12:38:17;3.85;;;2.50;;
33738;SDS011;20063;51.730;11.110;2024-02-16T12:40:45;9.98;;;4.18;;
33738;SDS011;20063;51.730;11.110;2024-02-16T12:43:11;5.25;;;2.63;;
33738;SDS011;20063;51.730;11.110;2024-02-16T12:45:38;6.07;;;2.83;;
33738;SDS011;20063;51.730;11.110;2024-02-16T12:48:04;8.13;;;2.65;;
33738;SDS011;20063;51.730;11.110;2024-02-16T12:50:31;6.57;;;2.72;;
33738;SDS011;20063;51.730;11.110;2024-02-16T12:52:56;3.58;;;2.20;;
33738;SDS011;20063;51.730;11.110;2024-02-16T12:55:23;7.22;;;2.80;;
33738;SDS011;20063;51.730;11.110;2024-02-16T12:57:49;9.38;;;2.95;;
33738;SDS011;20063;51.730;11.110;2024-02-16T13:00:16;4.60;;;2.25;;
33738;SDS011;20063;51.730;11.110;2024-02-16T13:02:42;5.50;;;2.83;;
33738;SDS011;20063;51.730;11.110;2024-02-16T13:05:08;6.07;;;2.10;;
33738;SDS011;20063;51.730;11.110;2024-02-16T13:07:33;7.57;;;2.45;;
33738;SDS011;20063;51.730;11.110;2024-02-16T13:09:59;6.50;;;3.03;;
33738;SDS011;20063;51.730;11.110;2024-02-16T13:12:25;16.58;;;2.85;;
33738;SDS011;20063;51.730;11.110;2024-02-16T13:14:51;7.50;;;2.70;;
33738;SDS011;20063;51.730;11.110;2024-02-16T13:17:16;8.43;;;3.05;;
33738;SDS011;20063;51.730;11.110;2024-02-16T13:19:42;8.05;;;2.25;;
33738;SDS011;20063;51.730;11.110;2024-02-16T13:22:07;8.32;;;3.22;;
33738;SDS011;20063;51.730;11.110;2024-02-16T13:24:33;10.90;;;3.60;;
33738;SDS011;20063;51.730;11.110;2024-02-16T13:26:59;11.40;;;3.00;;
33738;SDS011;20063;51.730;11.110;2024-02-16T13:29:25;8.02;;;3.38;;
33738;SDS011;20063;51.730;11.110;2024-02-16T13:31:51;4.78;;;2.90;;
33738;SDS011;20063;51.730;11.110;2024-02-16T13:34:17;5.28;;;2.60;;
33738;SDS011;20063;51.730;11.110;2024-02-16T13:36:42;8.15;;;3.70;;
33738;SDS011;20063;51.730;11.110;2024-02-16T13:39:08;14.07;;;4.15;;
33738;SDS011;20063;51.730;11.110;2024-02-16T13:41:33;11.13;;;2.70;;
33738;SDS011;20063;51.730;11.110;2024-02-16T13:43:59;9.35;;;2.40;;
33738;SDS011;20063;51.730;11.110;2024-02-16T13:46:25;7.53;;;2.70;;
33738;SDS011;20063;51.730;11.110;2024-02-16T13:48:51;9.13;;;3.38;;
33738;SDS011;20063;51.730;11.110;2024-02-16T13:51:16;8.55;;;3.00;;
33738;SDS011;20063;51.730;11.110;2024-02-16T13:53:42;6.10;;;2.58;;
33738;SDS011;20063;51.730;11.110;2024-02-16T13:56:07;12.02;;;2.25;;
33738;SDS011;20063;51.730;11.110;2024-02-16T13:58:34;11.40;;;3.38;;
33738;SDS011;20063;51.730;11.110;2024-02-16T14:01:00;14.13;;;5.03;;
33738;SDS011;20063;51.730;11.110;2024-02-16T14:03:28;10.20;;;3.80;;
33738;SDS011;20063;51.730;11.110;2024-02-16T14:05:54;11.52;;;3.63;;
33738;SDS011;20063;51.730;11.110;2024-02-16T14:08:20;14.52;;;4.07;;
33738;SDS011;20063;51.730;11.110;2024-02-16T14:10:46;10.43;;;4.18;;
33738;SDS011;20063;51.730;11.110;2024-02-16T14:13:11;10.32;;;4.03;;
33738;SDS011;20063;51.730;11.110;2024-02-16T14:15:37;8.55;;;3.42;;
33738;SDS011;20063;51.730;11.110;2024-02-16T14:20:54;19.33;;;3.40;;
33738;SDS011;20063;51.730;11.110;2024-02-16T14:23:20;13.23;;;3.15;;
33738;SDS011;20063;51.730;11.110;2024-02-16T14:25:45;8.25;;;2.65;;
33738;SDS011;20063;51.730;11.110;2024-02-16T14:28:12;6.63;;;2.80;;
33738;SDS011;20063;51.730;11.110;2024-02-16T14:30:37;8.32;;;2.95;;
33738;SDS011;20063;51.730;11.110;2024-02-16T14:33:04;7.70;;;2.38;;
33738;SDS011;20063;51.730;11.110;2024-02-16T14:35:30;5.95;;;2.30;;
33738;SDS011;20063;51.730;11.110;2024-02-16T14:38:01;11.45;;;3.15;;
33738;SDS011;20063;51.730;11.110;2024-02-16T14:40:26;11.07;;;3.08;;
33738;SDS011;20063;51.730;11.110;2024-02-16T14:42:52;7.93;;;2.63;;
33738;SDS011;20063;51.730;11.110;2024-02-16T14:45:17;9.57;;;2.90;;
33738;SDS011;20063;51.730;11.110;2024-02-16T14:47:49;9.20;;;3.35;;